sensor_id;sensor_type;location;lat;lon;timestamp;P1;durP1;ratioP1;P2;durP2;ratioP2
66595;SDS011;59017;49.252;18.838;2022-07-03T00:01:18;7.95;;;6.20;;
66595;SDS011;59017;49.252;18.838;2022-07-03T00:03:43;8.13;;;6.30;;
66595;SDS011;59017;49.252;18.838;2022-07-03T00:06:09;9.48;;;6.88;;
66595;SDS011;59017;49.252;18.838;2022-07-03T00:08:35;6.88;;;6.05;;
66595;SDS011;59017;49.252;18.838;2022-07-03T00:11:01;7.57;;;5.85;;
66595;SDS011;59017;49.252;18.838;2022-07-03T00:13:26;10.07;;;6.03;;
66595;SDS011;59017;49.252;18.838;2022-07-03T00:15:52;7.53;;;5.90;;
66595;SDS011;59017;49.252;18.838;2022-07-03T00:18:17;8.20;;;6.28;;
66595;SDS011;59017;49.252;18.838;2022-07-03T00:20:47;8.20;;;6.20;;
66595;SDS011;59017;49.252;18.838;2022-07-03T00:23:15;8.35;;;6.63;;
66595;SDS011;59017;49.252;18.838;2022-07-03T00:25:42;7.75;;;6.03;;
66595;SDS011;59017;49.252;18.838;2022-07-03T00:28:08;9.88;;;6.38;;
66595;SDS011;59017;49.252;18.838;2022-07-03T00:30:34;7.88;;;5.65;;
66595;SDS011;59017;49.252;18.838;2022-07-03T00:33:03;8.52;;;6.50;;
66595;SDS011;59017;49.252;18.838;2022-07-03T00:35:34;6.97;;;5.80;;
66595;SDS011;59017;49.252;18.838;2022-07-03T00:38:02;8.77;;;6.43;;
66595;SDS011;59017;49.252;18.838;2022-07-03T00:40:28;10.10;;;5.78;;
66595;SDS011;59017;49.252;18.838;2022-07-03T00:42:55;8.95;;;6.80;;
66595;SDS011;59017;49.252;18.838;2022-07-03T00:45:24;8.73;;;6.30;;
66595;SDS011;59017;49.252;18.838;2022-07-03T00:47:51;9.18;;;6.78;;
66595;SDS011;59017;49.252;18.838;2022-07-03T00:50:17;9.60;;;6.90;;
66595;SDS011;59017;49.252;18.838;2022-07-03T00:52:50;8.75;;;6.30;;
66595;SDS011;59017;49.252;18.838;2022-07-03T00:55:18;10.43;;;6.18;;
66595;SDS011;59017;49.252;18.838;2022-07-03T00:57:46;7.07;;;6.30;;
66595;SDS011;59017;49.252;18.838;2022-07-03T01:00:13;7.43;;;6.20;;
66595;SDS011;59017;49.252;18.838;2022-07-03T01:02:55;10.25;;;6.13;;
66595;SDS011;59017;49.252;18.838;2022-07-03T01:16:27;9.68;;;5.47;;
66595;SDS011;59017;49.252;18.838;2022-07-03T01:25:13;9.13;;;6.43;;
66595;SDS011;59017;49.252;18.838;2022-07-03T01:30:16;12.38;;;5.90;;
66595;SDS011;59017;49.252;18.838;2022-07-03T01:32:45;8.15;;;6.38;;
66595;SDS011;59017;49.252;18.838;2022-07-03T01:35:12;7.75;;;5.90;;
66595;SDS011;59017;49.252;18.838;2022-07-03T01:37:40;8.73;;;5.60;;
66595;SDS011;59017;49.252;18.838;2022-07-03T01:40:06;7.03;;;5.80;;
66595;SDS011;59017;49.252;18.838;2022-07-03T01:42:33;7.75;;;5.97;;
66595;SDS011;59017;49.252;18.838;2022-07-03T01:45:05;10.02;;;6.43;;
66595;SDS011;59017;49.252;18.838;2022-07-03T01:47:33;7.82;;;6.03;;
66595;SDS011;59017;49.252;18.838;2022-07-03T01:50:00;8.13;;;5.70;;
66595;SDS011;59017;49.252;18.838;2022-07-03T01:52:26;7.65;;;5.80;;
66595;SDS011;59017;49.252;18.838;2022-07-03T01:54:56;8.88;;;5.78;;
66595;SDS011;59017;49.252;18.838;2022-07-03T01:57:25;8.70;;;5.70;;
66595;SDS011;59017;49.252;18.838;2022-07-03T02:00:06;6.80;;;5.80;;
66595;SDS011;59017;49.252;18.838;2022-07-03T02:02:33;9.38;;;5.43;;
66595;SDS011;59017;49.252;18.838;2022-07-03T02:05:08;8.25;;;5.97;;
66595;SDS011;59017;49.252;18.838;2022-07-03T02:07:43;7.45;;;5.70;;
66595;SDS011;59017;49.252;18.838;2022-07-03T02:10:15;8.07;;;6.35;;
66595;SDS011;59017;49.252;18.838;2022-07-03T02:12:47;11.45;;;5.85;;
66595;SDS011;59017;49.252;18.838;2022-07-03T02:15:21;7.05;;;5.93;;
66595;SDS011;59017;49.252;18.838;2022-07-03T02:17:54;7.15;;;5.53;;
66595;SDS011;59017;49.252;18.838;2022-07-03T02:20:21;8.88;;;5.50;;
66595;SDS011;59017;49.252;18.838;2022-07-03T02:22:57;7.75;;;5.90;;
66595;SDS011;59017;49.252;18.838;2022-07-03T02:25:36;6.90;;;5.32;;
66595;SDS011;59017;49.252;18.838;2022-07-03T02:30:42;6.90;;;5.57;;
66595;SDS011;59017;49.252;18.838;2022-07-03T02:33:11;6.68;;;5.18;;
66595;SDS011;59017;49.252;18.838;2022-07-03T02:35:42;11.27;;;5.88;;
66595;SDS011;59017;49.252;18.838;2022-07-03T02:38:18;6.57;;;5.43;;
66595;SDS011;59017;49.252;18.838;2022-07-03T02:46:14;12.10;;;5.47;;
66595;SDS011;59017;49.252;18.838;2022-07-03T02:51:44;9.88;;;6.00;;
66595;SDS011;59017;49.252;18.838;2022-07-03T02:54:15;7.93;;;5.53;;
66595;SDS011;59017;49.252;18.838;2022-07-03T03:07:57;9.10;;;6.05;;
66595;SDS011;59017;49.252;18.838;2022-07-03T03:10:26;13.90;;;6.20;;
66595;SDS011;59017;49.252;18.838;2022-07-03T03:12:52;9.52;;;6.00;;
66595;SDS011;59017;49.252;18.838;2022-07-03T03:15:27;8.15;;;5.80;;
66595;SDS011;59017;49.252;18.838;2022-07-03T03:17:55;9.63;;;6.13;;
66595;SDS011;59017;49.252;18.838;2022-07-03T03:20:27;9.45;;;6.60;;
66595;SDS011;59017;49.252;18.838;2022-07-03T03:25:39;8.32;;;6.13;;
66595;SDS011;59017;49.252;18.838;2022-07-03T03:28:04;8.60;;;6.05;;
66595;SDS011;59017;49.252;18.838;2022-07-03T03:30:30;12.32;;;6.45;;
66595;SDS011;59017;49.252;18.838;2022-07-03T03:32:56;9.68;;;6.10;;
66595;SDS011;59017;49.252;18.838;2022-07-03T03:35:21;8.48;;;5.68;;
66595;SDS011;59017;49.252;18.838;2022-07-03T03:37:47;10.43;;;6.05;;
66595;SDS011;59017;49.252;18.838;2022-07-03T03:40:15;8.95;;;6.38;;
66595;SDS011;59017;49.252;18.838;2022-07-03T03:42:41;10.32;;;6.30;;
66595;SDS011;59017;49.252;18.838;2022-07-03T03:45:07;9.43;;;6.20;;
66595;SDS011;59017;49.252;18.838;2022-07-03T03:47:33;8.85;;;6.07;;
66595;SDS011;59017;49.252;18.838;2022-07-03T03:49:59;31.40;;;6.53;;
66595;SDS011;59017;49.252;18.838;2022-07-03T03:52:25;7.72;;;6.20;;
66595;SDS011;59017;49.252;18.838;2022-07-03T03:54:51;9.77;;;6.35;;
66595;SDS011;59017;49.252;18.838;2022-07-03T03:57:17;8.13;;;5.90;;
66595;SDS011;59017;49.252;18.838;2022-07-03T03:59:47;9.97;;;5.90;;
66595;SDS011;59017;49.252;18.838;2022-07-03T04:02:13;9.40;;;5.80;;
66595;SDS011;59017;49.252;18.838;2022-07-03T04:04:38;7.60;;;5.90;;
66595;SDS011;59017;49.252;18.838;2022-07-03T04:07:04;12.77;;;6.55;;
66595;SDS011;59017;49.252;18.838;2022-07-03T04:09:30;8.07;;;5.93;;
66595;SDS011;59017;49.252;18.838;2022-07-03T04:11:57;13.32;;;6.15;;
66595;SDS011;59017;49.252;18.838;2022-07-03T04:14:23;11.57;;;6.75;;
66595;SDS011;59017;49.252;18.838;2022-07-03T04:16:48;11.57;;;7.15;;
66595;SDS011;59017;49.252;18.838;2022-07-03T04:19:14;10.90;;;7.32;;
66595;SDS011;59017;49.252;18.838;2022-07-03T04:21:39;11.90;;;7.70;;
66595;SDS011;59017;49.252;18.838;2022-07-03T04:24:05;14.73;;;7.63;;
66595;SDS011;59017;49.252;18.838;2022-07-03T04:26:31;10.25;;;7.30;;
66595;SDS011;59017;49.252;18.838;2022-07-03T04:28:56;9.45;;;7.00;;
66595;SDS011;59017;49.252;18.838;2022-07-03T04:31:22;20.20;;;7.88;;
66595;SDS011;59017;49.252;18.838;2022-07-03T04:33:47;11.07;;;8.00;;
66595;SDS011;59017;49.252;18.838;2022-07-03T04:36:13;14.63;;;8.63;;
66595;SDS011;59017;49.252;18.838;2022-07-03T04:38:39;11.95;;;7.93;;
66595;SDS011;59017;49.252;18.838;2022-07-03T04:41:04;15.38;;;8.43;;
66595;SDS011;59017;49.252;18.838;2022-07-03T04:43:29;14.98;;;8.27;;
66595;SDS011;59017;49.252;18.838;2022-07-03T04:45:55;10.75;;;8.00;;
66595;SDS011;59017;49.252;18.838;2022-07-03T04:48:20;13.38;;;7.80;;
66595;SDS011;59017;49.252;18.838;2022-07-03T04:50:46;12.63;;;8.10;;
66595;SDS011;59017;49.252;18.838;2022-07-03T04:53:11;15.60;;;8.55;;
66595;SDS011;59017;49.252;18.838;2022-07-03T04:55:37;14.00;;;9.52;;
66595;SDS011;59017;49.252;18.838;2022-07-03T04:58:02;13.25;;;8.52;;
66595;SDS011;59017;49.252;18.838;2022-07-03T05:00:28;13.13;;;8.27;;
66595;SDS011;59017;49.252;18.838;2022-07-03T05:02:53;13.10;;;8.63;;
66595;SDS011;59017;49.252;18.838;2022-07-03T05:05:19;12.18;;;8.90;;
66595;SDS011;59017;49.252;18.838;2022-07-03T05:07:44;14.98;;;9.52;;
66595;SDS011;59017;49.252;18.838;2022-07-03T05:10:10;33.58;;;9.85;;
66595;SDS011;59017;49.252;18.838;2022-07-03T05:12:35;12.35;;;9.18;;
66595;SDS011;59017;49.252;18.838;2022-07-03T05:15:01;18.83;;;10.27;;
66595;SDS011;59017;49.252;18.838;2022-07-03T05:17:26;15.55;;;9.80;;
66595;SDS011;59017;49.252;18.838;2022-07-03T05:19:52;15.57;;;9.93;;
66595;SDS011;59017;49.252;18.838;2022-07-03T05:22:37;12.80;;;9.63;;
66595;SDS011;59017;49.252;18.838;2022-07-03T05:25:03;13.98;;;9.02;;
66595;SDS011;59017;49.252;18.838;2022-07-03T05:27:28;12.27;;;9.38;;
66595;SDS011;59017;49.252;18.838;2022-07-03T05:29:54;13.32;;;9.52;;
66595;SDS011;59017;49.252;18.838;2022-07-03T05:32:19;12.82;;;8.63;;
66595;SDS011;59017;49.252;18.838;2022-07-03T05:34:45;12.95;;;10.10;;
66595;SDS011;59017;49.252;18.838;2022-07-03T05:37:10;14.10;;;8.68;;
66595;SDS011;59017;49.252;18.838;2022-07-03T05:39:36;11.77;;;9.52;;
66595;SDS011;59017;49.252;18.838;2022-07-03T05:42:03;13.15;;;8.60;;
66595;SDS011;59017;49.252;18.838;2022-07-03T05:44:28;11.48;;;8.05;;
66595;SDS011;59017;49.252;18.838;2022-07-03T05:46:54;11.10;;;8.20;;
66595;SDS011;59017;49.252;18.838;2022-07-03T05:49:20;12.18;;;9.50;;
66595;SDS011;59017;49.252;18.838;2022-07-03T05:51:45;11.88;;;9.68;;
66595;SDS011;59017;49.252;18.838;2022-07-03T05:54:11;14.48;;;9.70;;
66595;SDS011;59017;49.252;18.838;2022-07-03T05:56:36;13.00;;;10.00;;
66595;SDS011;59017;49.252;18.838;2022-07-03T05:59:02;13.68;;;9.55;;
66595;SDS011;59017;49.252;18.838;2022-07-03T06:01:27;13.27;;;10.05;;
66595;SDS011;59017;49.252;18.838;2022-07-03T06:03:53;11.27;;;9.25;;
66595;SDS011;59017;49.252;18.838;2022-07-03T06:06:18;11.23;;;9.60;;
66595;SDS011;59017;49.252;18.838;2022-07-03T06:08:43;12.43;;;9.63;;
66595;SDS011;59017;49.252;18.838;2022-07-03T06:11:09;12.23;;;9.52;;
66595;SDS011;59017;49.252;18.838;2022-07-03T06:13:34;12.23;;;9.40;;
66595;SDS011;59017;49.252;18.838;2022-07-03T06:16:00;15.20;;;9.32;;
66595;SDS011;59017;49.252;18.838;2022-07-03T06:18:25;15.13;;;10.00;;
66595;SDS011;59017;49.252;18.838;2022-07-03T06:20:51;15.05;;;9.05;;
66595;SDS011;59017;49.252;18.838;2022-07-03T06:23:16;12.20;;;9.45;;
66595;SDS011;59017;49.252;18.838;2022-07-03T06:25:42;13.52;;;9.55;;
66595;SDS011;59017;49.252;18.838;2022-07-03T06:28:07;13.55;;;9.45;;
66595;SDS011;59017;49.252;18.838;2022-07-03T06:30:33;15.55;;;9.23;;
66595;SDS011;59017;49.252;18.838;2022-07-03T06:32:58;12.07;;;9.10;;
66595;SDS011;59017;49.252;18.838;2022-07-03T06:35:25;14.32;;;8.98;;
66595;SDS011;59017;49.252;18.838;2022-07-03T06:37:50;13.60;;;8.82;;
66595;SDS011;59017;49.252;18.838;2022-07-03T06:40:16;14.40;;;9.18;;
66595;SDS011;59017;49.252;18.838;2022-07-03T06:42:41;10.52;;;8.07;;
66595;SDS011;59017;49.252;18.838;2022-07-03T06:45:07;9.77;;;8.15;;
66595;SDS011;59017;49.252;18.838;2022-07-03T06:47:36;13.63;;;8.68;;
66595;SDS011;59017;49.252;18.838;2022-07-03T06:50:03;12.68;;;8.77;;
66595;SDS011;59017;49.252;18.838;2022-07-03T06:52:28;12.23;;;7.53;;
66595;SDS011;59017;49.252;18.838;2022-07-03T06:54:54;14.98;;;8.25;;
66595;SDS011;59017;49.252;18.838;2022-07-03T06:57:19;11.45;;;8.10;;
66595;SDS011;59017;49.252;18.838;2022-07-03T06:59:45;10.77;;;7.72;;
66595;SDS011;59017;49.252;18.838;2022-07-03T07:02:10;10.73;;;8.05;;
66595;SDS011;59017;49.252;18.838;2022-07-03T07:04:35;10.40;;;7.97;;
66595;SDS011;59017;49.252;18.838;2022-07-03T07:07:01;11.95;;;8.23;;
66595;SDS011;59017;49.252;18.838;2022-07-03T07:09:27;13.07;;;8.02;;
66595;SDS011;59017;49.252;18.838;2022-07-03T07:11:52;11.93;;;8.50;;
66595;SDS011;59017;49.252;18.838;2022-07-03T07:14:18;10.52;;;7.93;;
66595;SDS011;59017;49.252;18.838;2022-07-03T07:16:43;11.57;;;7.80;;
66595;SDS011;59017;49.252;18.838;2022-07-03T07:19:09;11.43;;;8.50;;
66595;SDS011;59017;49.252;18.838;2022-07-03T07:21:34;12.30;;;8.18;;
66595;SDS011;59017;49.252;18.838;2022-07-03T07:24:00;13.13;;;8.65;;
66595;SDS011;59017;49.252;18.838;2022-07-03T07:26:25;10.68;;;8.60;;
66595;SDS011;59017;49.252;18.838;2022-07-03T07:28:51;11.68;;;8.50;;
66595;SDS011;59017;49.252;18.838;2022-07-03T07:31:16;12.40;;;8.18;;
66595;SDS011;59017;49.252;18.838;2022-07-03T07:33:42;10.50;;;7.65;;
66595;SDS011;59017;49.252;18.838;2022-07-03T07:36:07;13.32;;;7.90;;
66595;SDS011;59017;49.252;18.838;2022-07-03T07:38:33;9.30;;;7.55;;
66595;SDS011;59017;49.252;18.838;2022-07-03T07:40:59;11.57;;;7.88;;
66595;SDS011;59017;49.252;18.838;2022-07-03T07:43:25;11.20;;;7.32;;
66595;SDS011;59017;49.252;18.838;2022-07-03T07:45:51;9.27;;;7.35;;
66595;SDS011;59017;49.252;18.838;2022-07-03T07:48:19;9.10;;;7.05;;
66595;SDS011;59017;49.252;18.838;2022-07-03T07:50:44;9.13;;;7.00;;
66595;SDS011;59017;49.252;18.838;2022-07-03T07:53:10;9.10;;;6.72;;
66595;SDS011;59017;49.252;18.838;2022-07-03T07:55:35;8.70;;;6.63;;
66595;SDS011;59017;49.252;18.838;2022-07-03T07:58:01;10.27;;;7.30;;
66595;SDS011;59017;49.252;18.838;2022-07-03T08:00:27;9.80;;;7.40;;
66595;SDS011;59017;49.252;18.838;2022-07-03T08:02:52;10.55;;;7.40;;
66595;SDS011;59017;49.252;18.838;2022-07-03T08:05:36;10.55;;;6.80;;
66595;SDS011;59017;49.252;18.838;2022-07-03T08:08:06;9.10;;;7.10;;
66595;SDS011;59017;49.252;18.838;2022-07-03T08:10:44;10.52;;;7.10;;
66595;SDS011;59017;49.252;18.838;2022-07-03T08:13:24;8.30;;;7.30;;
66595;SDS011;59017;49.252;18.838;2022-07-03T08:15:50;13.05;;;7.97;;
66595;SDS011;59017;49.252;18.838;2022-07-03T08:18:26;11.60;;;7.88;;
66595;SDS011;59017;49.252;18.838;2022-07-03T08:20:51;44.65;;;11.75;;
66595;SDS011;59017;49.252;18.838;2022-07-03T08:23:17;41.40;;;11.05;;
66595;SDS011;59017;49.252;18.838;2022-07-03T08:25:42;99.53;;;19.58;;
66595;SDS011;59017;49.252;18.838;2022-07-03T08:28:08;141.95;;;27.67;;
66595;SDS011;59017;49.252;18.838;2022-07-03T08:30:33;105.15;;;21.55;;
66595;SDS011;59017;49.252;18.838;2022-07-03T08:32:59;77.57;;;18.33;;
66595;SDS011;59017;49.252;18.838;2022-07-03T08:35:25;57.00;;;15.32;;
66595;SDS011;59017;49.252;18.838;2022-07-03T08:37:51;65.65;;;15.50;;
66595;SDS011;59017;49.252;18.838;2022-07-03T08:40:17;50.15;;;14.35;;
66595;SDS011;59017;49.252;18.838;2022-07-03T08:42:53;44.90;;;13.40;;
66595;SDS011;59017;49.252;18.838;2022-07-03T08:45:22;34.17;;;11.23;;
66595;SDS011;59017;49.252;18.838;2022-07-03T08:47:48;27.70;;;9.55;;
66595;SDS011;59017;49.252;18.838;2022-07-03T08:50:16;22.13;;;8.95;;
66595;SDS011;59017;49.252;18.838;2022-07-03T08:52:43;19.48;;;9.27;;
66595;SDS011;59017;49.252;18.838;2022-07-03T08:55:10;19.23;;;9.00;;
66595;SDS011;59017;49.252;18.838;2022-07-03T08:57:37;16.73;;;7.80;;
66595;SDS011;59017;49.252;18.838;2022-07-03T09:00:07;15.40;;;8.20;;
66595;SDS011;59017;49.252;18.838;2022-07-03T09:05:00;14.23;;;7.63;;
66595;SDS011;59017;49.252;18.838;2022-07-03T09:07:35;19.00;;;8.30;;
66595;SDS011;59017;49.252;18.838;2022-07-03T09:10:12;15.20;;;7.40;;
66595;SDS011;59017;49.252;18.838;2022-07-03T09:12:42;11.57;;;7.75;;
66595;SDS011;59017;49.252;18.838;2022-07-03T09:15:11;10.15;;;7.35;;
66595;SDS011;59017;49.252;18.838;2022-07-03T09:17:37;10.25;;;7.40;;
66595;SDS011;59017;49.252;18.838;2022-07-03T09:20:03;11.13;;;6.93;;
66595;SDS011;59017;49.252;18.838;2022-07-03T09:22:34;12.57;;;7.85;;
66595;SDS011;59017;49.252;18.838;2022-07-03T09:25:06;9.38;;;7.28;;
66595;SDS011;59017;49.252;18.838;2022-07-03T09:27:33;10.68;;;7.03;;
66595;SDS011;59017;49.252;18.838;2022-07-03T09:30:06;10.52;;;7.38;;
66595;SDS011;59017;49.252;18.838;2022-07-03T09:32:41;9.63;;;7.22;;
66595;SDS011;59017;49.252;18.838;2022-07-03T09:40:20;18.40;;;7.55;;
66595;SDS011;59017;49.252;18.838;2022-07-03T09:43:03;17.98;;;7.30;;
66595;SDS011;59017;49.252;18.838;2022-07-03T09:45:49;19.05;;;7.68;;
66595;SDS011;59017;49.252;18.838;2022-07-03T09:48:21;15.83;;;7.40;;
66595;SDS011;59017;49.252;18.838;2022-07-03T09:50:55;28.90;;;7.95;;
66595;SDS011;59017;49.252;18.838;2022-07-03T09:53:43;36.03;;;8.18;;
66595;SDS011;59017;49.252;18.838;2022-07-03T09:56:18;46.00;;;8.70;;
66595;SDS011;59017;49.252;18.838;2022-07-03T10:01:34;16.13;;;7.10;;
66595;SDS011;59017;49.252;18.838;2022-07-03T10:04:10;13.75;;;6.75;;
66595;SDS011;59017;49.252;18.838;2022-07-03T10:06:53;11.77;;;6.35;;
66595;SDS011;59017;49.252;18.838;2022-07-03T10:09:23;11.88;;;6.88;;
66595;SDS011;59017;49.252;18.838;2022-07-03T10:11:50;10.43;;;6.95;;
66595;SDS011;59017;49.252;18.838;2022-07-03T10:14:19;9.25;;;6.95;;
66595;SDS011;59017;49.252;18.838;2022-07-03T10:16:56;8.82;;;7.40;;
66595;SDS011;59017;49.252;18.838;2022-07-03T10:19:39;11.90;;;7.70;;
66595;SDS011;59017;49.252;18.838;2022-07-03T10:25:23;13.55;;;7.18;;
66595;SDS011;59017;49.252;18.838;2022-07-03T10:27:55;10.90;;;6.75;;
66595;SDS011;59017;49.252;18.838;2022-07-03T10:30:23;10.57;;;6.90;;
66595;SDS011;59017;49.252;18.838;2022-07-03T10:32:50;10.40;;;7.53;;
66595;SDS011;59017;49.252;18.838;2022-07-03T10:35:21;16.08;;;7.55;;
66595;SDS011;59017;49.252;18.838;2022-07-03T10:43:51;9.30;;;6.45;;
66595;SDS011;59017;49.252;18.838;2022-07-03T10:46:36;10.68;;;6.07;;
66595;SDS011;59017;49.252;18.838;2022-07-03T10:49:03;7.68;;;6.07;;
66595;SDS011;59017;49.252;18.838;2022-07-03T10:51:32;7.57;;;5.72;;
66595;SDS011;59017;49.252;18.838;2022-07-03T10:54:18;7.68;;;5.93;;
66595;SDS011;59017;49.252;18.838;2022-07-03T11:07:25;6.88;;;5.30;;
66595;SDS011;59017;49.252;18.838;2022-07-03T11:20:34;7.40;;;4.60;;
66595;SDS011;59017;49.252;18.838;2022-07-03T11:23:28;5.67;;;4.67;;
66595;SDS011;59017;49.252;18.838;2022-07-03T11:26:40;7.53;;;4.80;;
66595;SDS011;59017;49.252;18.838;2022-07-03T11:28:47;6.90;;;4.90;;
66595;SDS011;59017;49.252;18.838;2022-07-03T11:31:17;7.13;;;4.43;;
66595;SDS011;59017;49.252;18.838;2022-07-03T11:33:48;5.72;;;4.68;;
66595;SDS011;59017;49.252;18.838;2022-07-03T11:41:18;7.20;;;4.13;;
66595;SDS011;59017;49.252;18.838;2022-07-03T11:43:47;5.32;;;3.85;;
66595;SDS011;59017;49.252;18.838;2022-07-03T11:46:17;4.45;;;3.58;;
66595;SDS011;59017;49.252;18.838;2022-07-03T11:48:47;6.82;;;4.50;;
66595;SDS011;59017;49.252;18.838;2022-07-03T11:51:13;5.07;;;3.47;;
66595;SDS011;59017;49.252;18.838;2022-07-03T11:53:39;4.88;;;3.60;;
66595;SDS011;59017;49.252;18.838;2022-07-03T11:56:06;4.82;;;3.30;;
66595;SDS011;59017;49.252;18.838;2022-07-03T12:01:11;5.45;;;3.75;;
66595;SDS011;59017;49.252;18.838;2022-07-03T12:06:41;4.82;;;3.40;;
66595;SDS011;59017;49.252;18.838;2022-07-03T12:09:12;7.30;;;3.10;;
66595;SDS011;59017;49.252;18.838;2022-07-03T12:17:16;5.90;;;3.15;;
66595;SDS011;59017;49.252;18.838;2022-07-03T12:19:44;3.65;;;2.90;;
66595;SDS011;59017;49.252;18.838;2022-07-03T12:22:11;5.45;;;3.53;;
66595;SDS011;59017;49.252;18.838;2022-07-03T12:24:36;5.70;;;3.03;;
66595;SDS011;59017;49.252;18.838;2022-07-03T12:27:05;3.67;;;2.88;;
66595;SDS011;59017;49.252;18.838;2022-07-03T12:29:30;4.97;;;3.15;;
66595;SDS011;59017;49.252;18.838;2022-07-03T12:31:57;4.28;;;2.90;;
66595;SDS011;59017;49.252;18.838;2022-07-03T12:34:22;3.92;;;2.60;;
66595;SDS011;59017;49.252;18.838;2022-07-03T12:36:58;3.35;;;2.50;;
66595;SDS011;59017;49.252;18.838;2022-07-03T12:42:16;4.22;;;3.00;;
66595;SDS011;59017;49.252;18.838;2022-07-03T12:44:42;4.07;;;2.85;;
66595;SDS011;59017;49.252;18.838;2022-07-03T12:47:07;4.93;;;2.83;;
66595;SDS011;59017;49.252;18.838;2022-07-03T12:49:33;6.13;;;2.70;;
66595;SDS011;59017;49.252;18.838;2022-07-03T12:51:59;3.88;;;2.40;;
66595;SDS011;59017;49.252;18.838;2022-07-03T12:54:33;3.42;;;2.55;;
66595;SDS011;59017;49.252;18.838;2022-07-03T12:57:06;4.85;;;2.40;;
66595;SDS011;59017;49.252;18.838;2022-07-03T13:02:30;4.63;;;2.85;;
66595;SDS011;59017;49.252;18.838;2022-07-03T13:04:57;4.63;;;2.35;;
66595;SDS011;59017;49.252;18.838;2022-07-03T13:07:24;4.28;;;2.60;;
66595;SDS011;59017;49.252;18.838;2022-07-03T13:09:53;3.20;;;2.20;;
66595;SDS011;59017;49.252;18.838;2022-07-03T13:12:22;3.63;;;2.22;;
66595;SDS011;59017;49.252;18.838;2022-07-03T13:15:01;3.95;;;1.92;;
66595;SDS011;59017;49.252;18.838;2022-07-03T13:20:27;3.63;;;2.17;;
66595;SDS011;59017;49.252;18.838;2022-07-03T13:22:55;2.97;;;2.10;;
66595;SDS011;59017;49.252;18.838;2022-07-03T13:25:22;5.63;;;2.47;;
66595;SDS011;59017;49.252;18.838;2022-07-03T13:27:47;3.33;;;2.33;;
66595;SDS011;59017;49.252;18.838;2022-07-03T13:30:13;5.25;;;2.03;;
66595;SDS011;59017;49.252;18.838;2022-07-03T13:32:43;2.88;;;2.03;;
66595;SDS011;59017;49.252;18.838;2022-07-03T13:35:09;3.55;;;2.55;;
66595;SDS011;59017;49.252;18.838;2022-07-03T13:37:35;3.15;;;2.17;;
66595;SDS011;59017;49.252;18.838;2022-07-03T13:40:01;5.70;;;2.40;;
66595;SDS011;59017;49.252;18.838;2022-07-03T13:42:28;5.35;;;2.28;;
66595;SDS011;59017;49.252;18.838;2022-07-03T13:44:54;3.38;;;2.30;;
66595;SDS011;59017;49.252;18.838;2022-07-03T13:47:19;6.53;;;2.40;;
66595;SDS011;59017;49.252;18.838;2022-07-03T13:49:45;3.70;;;2.30;;
66595;SDS011;59017;49.252;18.838;2022-07-03T13:52:11;3.15;;;2.38;;
66595;SDS011;59017;49.252;18.838;2022-07-03T13:54:36;3.65;;;2.60;;
66595;SDS011;59017;49.252;18.838;2022-07-03T13:57:02;4.20;;;2.30;;
66595;SDS011;59017;49.252;18.838;2022-07-03T13:59:28;5.65;;;2.83;;
66595;SDS011;59017;49.252;18.838;2022-07-03T14:01:56;4.70;;;2.67;;
66595;SDS011;59017;49.252;18.838;2022-07-03T14:04:25;3.75;;;2.70;;
66595;SDS011;59017;49.252;18.838;2022-07-03T14:06:51;3.45;;;2.50;;
66595;SDS011;59017;49.252;18.838;2022-07-03T14:09:16;3.85;;;2.80;;
66595;SDS011;59017;49.252;18.838;2022-07-03T14:11:42;4.00;;;2.58;;
66595;SDS011;59017;49.252;18.838;2022-07-03T14:14:08;3.70;;;2.78;;
66595;SDS011;59017;49.252;18.838;2022-07-03T14:16:33;4.65;;;2.80;;
66595;SDS011;59017;49.252;18.838;2022-07-03T14:18:59;4.53;;;2.92;;
66595;SDS011;59017;49.252;18.838;2022-07-03T14:21:24;4.65;;;2.80;;
66595;SDS011;59017;49.252;18.838;2022-07-03T14:23:50;4.22;;;2.90;;
66595;SDS011;59017;49.252;18.838;2022-07-03T14:26:16;9.48;;;3.20;;
66595;SDS011;59017;49.252;18.838;2022-07-03T14:29:02;8.40;;;3.17;;
66595;SDS011;59017;49.252;18.838;2022-07-03T14:31:46;6.47;;;3.17;;
66595;SDS011;59017;49.252;18.838;2022-07-03T14:34:30;4.70;;;3.10;;
66595;SDS011;59017;49.252;18.838;2022-07-03T14:36:56;4.88;;;3.20;;
66595;SDS011;59017;49.252;18.838;2022-07-03T14:39:24;5.95;;;3.40;;
66595;SDS011;59017;49.252;18.838;2022-07-03T14:41:55;12.93;;;3.60;;
66595;SDS011;59017;49.252;18.838;2022-07-03T14:44:21;9.57;;;3.90;;
66595;SDS011;59017;49.252;18.838;2022-07-03T14:46:52;4.63;;;3.50;;
66595;SDS011;59017;49.252;18.838;2022-07-03T14:49:18;10.80;;;3.80;;
66595;SDS011;59017;49.252;18.838;2022-07-03T14:51:44;6.60;;;3.92;;
66595;SDS011;59017;49.252;18.838;2022-07-03T14:54:10;7.70;;;3.83;;
66595;SDS011;59017;49.252;18.838;2022-07-03T14:56:40;9.45;;;4.50;;
66595;SDS011;59017;49.252;18.838;2022-07-03T14:59:10;6.53;;;4.30;;
66595;SDS011;59017;49.252;18.838;2022-07-03T15:01:36;10.50;;;3.85;;
66595;SDS011;59017;49.252;18.838;2022-07-03T15:04:05;16.00;;;4.50;;
66595;SDS011;59017;49.252;18.838;2022-07-03T15:06:44;14.60;;;4.90;;
66595;SDS011;59017;49.252;18.838;2022-07-03T15:09:16;17.00;;;4.68;;
66595;SDS011;59017;49.252;18.838;2022-07-03T15:11:52;13.07;;;4.78;;
66595;SDS011;59017;49.252;18.838;2022-07-03T15:14:42;12.35;;;4.63;;
66595;SDS011;59017;49.252;18.838;2022-07-03T15:17:08;8.48;;;4.40;;
66595;SDS011;59017;49.252;18.838;2022-07-03T15:19:36;6.53;;;4.25;;
66595;SDS011;59017;49.252;18.838;2022-07-03T15:22:03;6.03;;;4.10;;
66595;SDS011;59017;49.252;18.838;2022-07-03T15:24:29;6.70;;;4.00;;
66595;SDS011;59017;49.252;18.838;2022-07-03T15:26:56;7.93;;;4.50;;
66595;SDS011;59017;49.252;18.838;2022-07-03T15:29:22;5.30;;;4.07;;
66595;SDS011;59017;49.252;18.838;2022-07-03T15:31:48;7.75;;;3.90;;
66595;SDS011;59017;49.252;18.838;2022-07-03T15:34:14;7.43;;;3.95;;
66595;SDS011;59017;49.252;18.838;2022-07-03T15:36:44;7.45;;;4.13;;
66595;SDS011;59017;49.252;18.838;2022-07-03T15:39:13;7.82;;;4.60;;
66595;SDS011;59017;49.252;18.838;2022-07-03T15:41:54;29.50;;;5.20;;
66595;SDS011;59017;49.252;18.838;2022-07-03T15:50:02;23.85;;;4.65;;
66595;SDS011;59017;49.252;18.838;2022-07-03T15:52:29;14.50;;;4.43;;
66595;SDS011;59017;49.252;18.838;2022-07-03T15:55:07;16.38;;;4.85;;
66595;SDS011;59017;49.252;18.838;2022-07-03T16:00:29;9.82;;;3.83;;
66595;SDS011;59017;49.252;18.838;2022-07-03T16:05:51;13.57;;;4.10;;
66595;SDS011;59017;49.252;18.838;2022-07-03T16:08:21;18.10;;;4.20;;
66595;SDS011;59017;49.252;18.838;2022-07-03T16:10:50;14.60;;;4.80;;
66595;SDS011;59017;49.252;18.838;2022-07-03T16:13:26;18.23;;;4.10;;
66595;SDS011;59017;49.252;18.838;2022-07-03T16:15:52;16.98;;;4.40;;
66595;SDS011;59017;49.252;18.838;2022-07-03T16:18:22;15.68;;;4.20;;
66595;SDS011;59017;49.252;18.838;2022-07-03T16:20:49;8.88;;;3.92;;
66595;SDS011;59017;49.252;18.838;2022-07-03T16:23:16;18.95;;;4.07;;
66595;SDS011;59017;49.252;18.838;2022-07-03T16:25:42;11.38;;;3.90;;
66595;SDS011;59017;49.252;18.838;2022-07-03T16:28:10;8.93;;;3.42;;
66595;SDS011;59017;49.252;18.838;2022-07-03T16:30:46;10.20;;;3.50;;
66595;SDS011;59017;49.252;18.838;2022-07-03T16:33:14;7.15;;;3.67;;
66595;SDS011;59017;49.252;18.838;2022-07-03T16:35:46;10.35;;;3.88;;
66595;SDS011;59017;49.252;18.838;2022-07-03T16:38:23;4.13;;;3.30;;